createdAt,value
2018-12-08T00:00:24.953Z,43.83
2018-12-08T00:02:53.420Z,43.10
2018-12-08T00:05:21.876Z,41.73
2018-12-08T00:07:50.529Z,39.90
2018-12-08T00:10:18.969Z,37.83
2018-12-08T00:12:47.432Z,36.80
2018-12-08T00:15:16.038Z,35.73
2018-12-08T00:17:44.495Z,35.23
2018-12-08T00:20:12.919Z,39.93
2018-12-08T00:22:42.486Z,37.83
2018-12-08T00:25:10.916Z,38.97
2018-12-08T00:27:39.361Z,35.90
2018-12-08T00:30:19.548Z,37.07
2018-12-08T00:32:48.756Z,39.60
2018-12-08T00:35:17.211Z,38.00
2018-12-08T00:37:46.597Z,39.73
2018-12-08T00:40:16.547Z,32.63
2018-12-08T00:42:44.992Z,34.77
2018-12-08T00:45:13.508Z,36.17
2018-12-08T00:47:42.709Z,35.87
2018-12-08T00:50:11.174Z,36.17
2018-12-08T00:52:40.445Z,32.23
2018-12-08T00:55:08.936Z,30.67
2018-12-08T00:57:37.385Z,32.13
2018-12-08T01:00:05.464Z,28.93
2018-12-08T01:02:33.900Z,32.07
2018-12-08T01:05:02.353Z,32.30
2018-12-08T01:07:30.948Z,33.03
2018-12-08T01:10:00.146Z,29.40
2018-12-08T01:12:29.350Z,33.03
2018-12-08T01:14:58.622Z,30.80
2018-12-08T01:17:27.073Z,30.63
2018-12-08T01:19:55.519Z,29.17
2018-12-08T01:22:24.019Z,32.67
2018-12-08T01:24:52.461Z,30.47
2018-12-08T01:27:21.656Z,26.70
2018-12-08T01:29:51.001Z,28.43
2018-12-08T01:32:19.965Z,29.03
2018-12-08T01:34:49.166Z,26.87
2018-12-08T01:37:18.544Z,29.77
2018-12-08T01:39:46.987Z,27.20
2018-12-08T01:42:15.427Z,23.60
2018-12-08T01:44:45.007Z,24.43
2018-12-08T01:47:13.455Z,23.20
2018-12-08T01:49:41.905Z,23.67
2018-12-08T01:52:10.555Z,23.93
2018-12-08T01:54:39.002Z,23.20
2018-12-08T01:57:07.442Z,22.97
2018-12-08T01:59:36.911Z,22.73
2018-12-08T02:02:05.371Z,24.20
2018-12-08T02:04:33.812Z,21.30
2018-12-08T02:07:02.326Z,22.37
2018-12-08T02:09:30.778Z,23.87
2018-12-08T02:11:59.217Z,21.33
2018-12-08T02:14:28.009Z,20.57
2018-12-08T02:16:56.486Z,22.17
2018-12-08T02:19:25.104Z,22.87
2018-12-08T02:21:54.360Z,18.97
2018-12-08T02:24:22.788Z,19.10
2018-12-08T02:26:51.966Z,18.63
2018-12-08T02:29:21.353Z,18.00
2018-12-08T02:31:49.799Z,19.77
2018-12-08T02:34:18.235Z,17.97
2018-12-08T02:36:47.723Z,16.60
2018-12-08T02:39:16.152Z,17.23
2018-12-08T02:41:44.595Z,18.57
2018-12-08T02:44:14.030Z,17.33
2018-12-08T02:46:42.463Z,17.23
2018-12-08T02:49:10.892Z,14.87
2018-12-08T02:51:39.519Z,15.80
2018-12-08T02:54:07.937Z,16.07
2018-12-08T02:56:36.373Z,17.93
2018-12-08T02:59:05.137Z,17.53
2018-12-08T03:01:33.573Z,17.77
2018-12-08T03:04:02.782Z,15.50
2018-12-08T03:06:31.526Z,16.20
2018-12-08T03:08:59.952Z,14.07
2018-12-08T03:11:28.377Z,16.53
2018-12-08T03:13:56.975Z,15.80
2018-12-08T03:16:25.418Z,14.93
2018-12-08T03:18:53.846Z,14.40
2018-12-08T03:21:24.056Z,13.50
2018-12-08T03:23:52.496Z,14.73
2018-12-08T03:26:20.916Z,16.60
2018-12-08T03:28:49.599Z,14.93
2018-12-08T03:31:18.045Z,13.27
2018-12-08T03:33:46.473Z,12.70
2018-12-08T03:36:15.737Z,13.43
2018-12-08T03:38:44.164Z,14.80
2018-12-08T03:41:13.372Z,13.27
2018-12-08T03:43:43.012Z,12.63
2018-12-08T03:46:11.456Z,13.10
2018-12-08T03:48:40.673Z,10.33
2018-12-08T03:51:09.311Z,11.63
2018-12-08T03:53:37.738Z,12.10
2018-12-08T03:56:06.209Z,12.63
2018-12-08T03:58:34.692Z,13.47
2018-12-08T04:01:03.126Z,11.43
2018-12-08T04:03:31.553Z,11.13
2018-12-08T04:06:00.391Z,11.20
2018-12-08T04:08:28.739Z,12.50
2018-12-08T04:10:57.186Z,11.30
2018-12-08T04:13:26.422Z,10.17
2018-12-08T04:15:54.905Z,11.70
2018-12-08T04:18:23.369Z,9.67
2018-12-08T04:20:52.091Z,8.50
2018-12-08T04:23:20.522Z,15.83
2018-12-08T04:25:48.969Z,10.07
2018-12-08T04:28:17.875Z,10.63
2018-12-08T04:30:47.089Z,10.73
2018-12-08T04:33:16.284Z,8.80
2018-12-08T04:35:45.644Z,9.23
2018-12-08T04:38:14.072Z,10.63
2018-12-08T04:40:42.508Z,10.20
2018-12-08T04:43:12.051Z,11.27
2018-12-08T04:45:41.253Z,11.13
2018-12-08T04:48:09.696Z,8.77
2018-12-08T04:50:38.284Z,9.60
2018-12-08T04:53:06.723Z,8.10
2018-12-08T04:55:35.149Z,9.77
2018-12-08T04:58:03.921Z,9.63
2018-12-08T05:00:32.344Z,9.73
2018-12-08T05:03:00.760Z,13.17
2018-12-08T05:05:29.261Z,14.43
2018-12-08T05:07:57.684Z,12.67
2018-12-08T05:10:26.871Z,11.40
2018-12-08T05:12:56.336Z,13.50
2018-12-08T05:15:24.774Z,13.83
2018-12-08T05:17:53.206Z,13.43
2018-12-08T05:20:21.734Z,13.40
2018-12-08T05:22:50.196Z,13.23
2018-12-08T05:25:19.380Z,19.40
2018-12-08T05:27:48.157Z,15.80
2018-12-08T05:30:16.592Z,15.57
2018-12-08T05:32:45.021Z,17.67
2018-12-08T05:35:13.613Z,18.03
2018-12-08T05:37:42.839Z,15.47
2018-12-08T05:40:11.493Z,17.83
2018-12-08T05:42:40.998Z,18.50
2018-12-08T05:45:09.454Z,20.37
2018-12-08T05:47:37.876Z,18.70
2018-12-08T05:50:06.726Z,21.20
2018-12-08T05:52:35.165Z,20.30
2018-12-08T05:55:03.931Z,19.27
2018-12-08T05:57:33.370Z,19.70
2018-12-08T06:00:01.861Z,23.60
2018-12-08T06:02:30.292Z,24.07
2018-12-08T06:04:59.638Z,22.33
2018-12-08T06:07:28.057Z,24.60
2018-12-08T06:09:56.480Z,23.77
2018-12-08T06:12:25.218Z,28.17
2018-12-08T06:14:53.654Z,21.30
2018-12-08T06:17:22.089Z,25.83
2018-12-08T06:19:50.762Z,25.33
2018-12-08T06:22:19.210Z,23.07
2018-12-08T06:24:47.667Z,23.27
2018-12-08T06:27:16.245Z,26.67
2018-12-08T06:29:45.270Z,26.37
2018-12-08T06:32:13.716Z,24.53
2018-12-08T06:34:43.183Z,27.30
2018-12-08T06:37:11.612Z,29.13
2018-12-08T06:39:40.051Z,25.77
2018-12-08T06:42:09.685Z,27.37
2018-12-08T06:44:38.901Z,27.93
2018-12-08T06:47:07.340Z,29.33
2018-12-08T06:49:36.017Z,29.47
2018-12-08T06:52:04.477Z,30.90
2018-12-08T06:54:32.913Z,30.73
2018-12-08T06:57:02.503Z,29.77
2018-12-08T06:59:30.951Z,31.90
2018-12-08T07:01:59.397Z,33.93
2018-12-08T07:04:28.124Z,34.70
2018-12-08T07:06:56.548Z,31.30
2018-12-08T07:09:24.969Z,33.33
2018-12-08T07:11:53.571Z,34.30
2018-12-08T07:14:22.000Z,34.57
2018-12-08T07:16:50.445Z,32.27
2018-12-08T07:19:19.233Z,29.07
2018-12-08T07:21:48.443Z,28.43
2018-12-08T07:24:17.661Z,27.80
2018-12-08T07:26:46.303Z,31.37
2018-12-08T07:29:14.731Z,28.03
2018-12-08T07:31:43.164Z,27.83
2018-12-08T07:34:11.762Z,25.80
2018-12-08T07:36:40.968Z,30.43
2018-12-08T07:39:10.176Z,27.93
2018-12-08T07:41:39.558Z,24.83
2018-12-08T07:44:09.388Z,24.70
2018-12-08T07:46:38.584Z,22.97
2018-12-08T07:49:07.853Z,23.57
2018-12-08T07:51:36.283Z,20.73
2018-12-08T07:54:04.776Z,22.73
2018-12-08T07:56:33.277Z,19.97
2018-12-08T07:59:01.730Z,23.47
2018-12-08T08:01:30.168Z,22.07
2018-12-08T08:03:58.736Z,17.63
2018-12-08T08:06:27.417Z,19.37
2018-12-08T08:08:55.853Z,19.60
2018-12-08T08:11:24.493Z,21.57
2018-12-08T08:13:52.933Z,20.70
2018-12-08T08:16:21.359Z,20.33
2018-12-08T08:18:49.960Z,25.07
2018-12-08T08:21:19.161Z,22.50
2018-12-08T08:23:48.354Z,17.53
2018-12-08T08:26:17.604Z,17.90
2018-12-08T08:28:46.040Z,19.40
2018-12-08T08:31:15.237Z,19.67
2018-12-08T08:33:44.617Z,18.77
2018-12-08T08:36:13.061Z,18.47
2018-12-08T08:38:41.502Z,17.17
2018-12-08T08:41:10.851Z,16.57
2018-12-08T08:43:39.282Z,18.57
2018-12-08T08:46:08.491Z,16.17
2018-12-08T08:48:37.137Z,19.03
2018-12-08T08:51:05.579Z,23.60
2018-12-08T08:53:34.012Z,23.37
2018-12-08T08:56:03.812Z,28.70
2018-12-08T08:58:32.236Z,21.57
2018-12-08T09:01:00.690Z,25.97
2018-12-08T09:03:30.072Z,24.17
2018-12-08T09:05:58.552Z,23.80
2018-12-08T09:08:27.949Z,21.10
2018-12-08T09:10:56.469Z,22.90
2018-12-08T09:13:25.665Z,21.03
2018-12-08T09:15:54.863Z,20.43
2018-12-08T09:18:24.350Z,20.83
2018-12-08T09:20:52.800Z,21.70
2018-12-08T09:23:21.231Z,20.10
2018-12-08T09:25:50.507Z,22.93
2018-12-08T09:28:19.716Z,22.20
2018-12-08T09:30:48.916Z,17.57
2018-12-08T09:33:18.184Z,17.57
2018-12-08T09:35:46.637Z,18.10
2018-12-08T09:38:15.072Z,18.23
2018-12-08T09:40:44.295Z,17.20
2018-12-08T09:43:12.739Z,19.13
2018-12-08T09:45:41.918Z,17.53
2018-12-08T09:48:09.886Z,16.27
2018-12-08T09:50:38.312Z,16.47
2018-12-08T09:53:12.172Z,15.80
2018-12-08T09:55:40.626Z,14.77
2018-12-08T09:58:09.071Z,14.90
2018-12-08T10:00:38.333Z,16.90
2018-12-08T10:03:06.782Z,14.67
2018-12-08T10:05:35.217Z,13.93
2018-12-08T10:08:03.893Z,15.13
2018-12-08T10:10:32.350Z,14.63
2018-12-08T10:13:00.796Z,15.30
2018-12-08T10:15:29.300Z,15.00
2018-12-08T10:17:57.731Z,15.47
2018-12-08T10:20:26.945Z,14.93
2018-12-08T10:22:55.531Z,14.07
2018-12-08T10:25:24.013Z,15.60
2018-12-08T10:27:52.495Z,11.93
2018-12-08T10:30:21.341Z,15.47
2018-12-08T10:32:49.785Z,12.17
2018-12-08T10:35:18.226Z,13.10
2018-12-08T10:37:47.607Z,14.70
2018-12-08T10:40:16.935Z,11.97
2018-12-08T10:42:45.322Z,13.13
2018-12-08T10:45:14.852Z,12.80
2018-12-08T10:47:43.281Z,12.47
2018-12-08T10:50:11.717Z,15.13
2018-12-08T10:52:40.405Z,13.43
2018-12-08T10:55:08.855Z,14.70
2018-12-08T10:57:37.361Z,13.20
2018-12-08T11:00:05.176Z,12.97
2018-12-08T11:02:34.459Z,11.73
2018-12-08T11:05:03.468Z,14.27
2018-12-08T11:07:31.932Z,11.83
2018-12-08T11:10:08.960Z,12.20
2018-12-08T11:12:37.643Z,13.17
2018-12-08T11:15:05.563Z,10.43
2018-12-08T11:17:34.744Z,12.67
2018-12-08T11:20:03.529Z,16.10
2018-12-08T11:33:50.732Z,20.80
2018-12-08T11:36:19.198Z,12.20
2018-12-08T11:38:49.672Z,17.80
2018-12-08T11:41:18.622Z,18.83
2018-12-08T11:52:39.929Z,15.50
2018-12-08T11:55:08.380Z,22.07
2018-12-08T11:59:47.056Z,16.93
2018-12-08T12:02:16.658Z,15.50
2018-12-08T12:04:46.077Z,15.73
2018-12-08T12:07:15.254Z,12.80
2018-12-08T12:09:43.692Z,15.17
2018-12-08T12:12:12.116Z,15.27
2018-12-08T12:14:41.005Z,13.67
2018-12-08T12:17:09.441Z,13.43
2018-12-08T12:19:37.916Z,13.57
2018-12-08T12:22:06.557Z,17.00
2018-12-08T12:24:36.504Z,16.37
2018-12-08T12:27:04.938Z,14.37
2018-12-08T12:29:33.728Z,11.07
2018-12-08T12:32:02.147Z,16.97
2018-12-08T12:34:31.361Z,15.17
2018-12-08T12:37:00.141Z,12.67
2018-12-08T12:39:29.325Z,17.10
2018-12-08T12:41:58.236Z,13.90
2018-12-08T12:44:26.865Z,13.80
2018-12-08T12:46:55.324Z,12.20
2018-12-08T12:49:23.752Z,16.17
2018-12-08T12:51:53.132Z,12.43
2018-12-08T12:54:21.576Z,11.40
2018-12-08T12:56:50.032Z,12.07
2018-12-08T12:59:18.673Z,12.90
2018-12-08T13:01:47.108Z,12.40
2018-12-08T13:04:15.536Z,12.13
2018-12-08T13:06:44.116Z,12.17
2018-12-08T13:09:12.575Z,15.10
2018-12-08T13:11:40.904Z,13.13
2018-12-08T13:14:10.157Z,13.27
2018-12-08T13:16:38.594Z,10.20
2018-12-08T13:19:07.028Z,13.30
2018-12-08T13:21:35.715Z,11.07
2018-12-08T13:24:04.177Z,10.63
2018-12-08T13:26:33.239Z,13.50
2018-12-08T13:32:24.701Z,10.40
2018-12-08T13:34:53.161Z,9.23
2018-12-08T13:45:16.806Z,12.80
2018-12-08T13:47:46.408Z,12.70
2018-12-08T15:01:13.522Z,17.30
2018-12-08T15:04:09.209Z,18.77
2018-12-08T15:06:39.556Z,18.23
2018-12-08T15:09:08.208Z,23.87
2018-12-08T15:24:55.742Z,425.17
2018-12-08T15:27:25.699Z,420.53
2018-12-08T15:29:54.216Z,431.03
2018-12-08T15:32:22.762Z,413.30
2018-12-08T15:34:51.179Z,423.40
2018-12-08T15:37:19.868Z,433.83
2018-12-08T15:39:48.245Z,453.40
2018-12-08T15:42:16.724Z,506.10
2018-12-08T15:44:45.175Z,669.17
2018-12-08T15:47:13.562Z,562.10
2018-12-08T15:49:42.113Z,755.43
2018-12-08T15:52:10.953Z,590.13
2018-12-08T15:54:39.438Z,524.30
2018-12-08T15:57:07.876Z,598.50
2018-12-08T15:59:36.472Z,606.07
2018-12-08T16:02:04.893Z,564.60
2018-12-08T16:04:33.320Z,561.33
2018-12-08T16:07:01.896Z,546.10
2018-12-08T16:09:30.351Z,527.27
2018-12-08T16:11:58.772Z,512.40
2018-12-08T16:14:27.298Z,561.27
2018-12-08T16:16:55.719Z,637.87
2018-12-08T16:19:24.169Z,545.50
2018-12-08T16:21:52.893Z,420.70
2018-12-08T16:24:21.377Z,344.23
2018-12-08T16:26:49.849Z,339.90
2018-12-08T16:29:18.539Z,361.70
2018-12-08T16:31:47.024Z,413.70
2018-12-08T16:34:15.441Z,430.40
2018-12-08T16:36:44.588Z,438.03
2018-12-08T16:39:13.698Z,492.40
2018-12-08T16:41:42.123Z,497.47
2018-12-08T16:44:10.713Z,519.20
2018-12-08T16:46:39.195Z,554.33
2018-12-08T16:49:07.592Z,538.23
2018-12-08T16:51:36.209Z,536.80
2018-12-08T16:54:04.738Z,549.93
2018-12-08T16:56:33.421Z,511.03
2018-12-08T16:59:01.936Z,596.67
2018-12-08T17:01:30.308Z,664.97
2018-12-08T17:03:58.880Z,607.37
2018-12-08T17:06:27.556Z,575.83
2018-12-08T17:08:56.033Z,567.07
2018-12-08T17:11:24.479Z,767.97
2018-12-08T17:13:53.016Z,679.03
2018-12-08T17:16:21.424Z,657.67
2018-12-08T17:18:49.813Z,633.00
2018-12-08T17:21:18.540Z,491.40
2018-12-08T17:23:48.060Z,445.30
2018-12-08T17:26:16.788Z,372.77
2018-12-08T17:28:45.616Z,281.33
2018-12-08T17:31:14.040Z,226.73
2018-12-08T17:33:42.479Z,203.27
2018-12-08T17:36:11.168Z,234.00
2018-12-08T17:38:39.556Z,426.10
2018-12-08T17:41:07.941Z,329.83
2018-12-08T17:43:36.680Z,294.10
2018-12-08T17:46:05.097Z,249.90
2018-12-08T17:48:33.574Z,286.97
2018-12-08T17:51:02.062Z,314.70
2018-12-08T17:53:30.531Z,350.23
2018-12-08T17:55:59.003Z,341.90
2018-12-08T17:58:27.532Z,492.33
2018-12-08T18:00:56.684Z,306.97
2018-12-08T18:09:27.876Z,339.97
2018-12-08T18:11:56.284Z,383.03
2018-12-08T18:14:24.872Z,372.23
2018-12-08T18:16:53.317Z,352.63
2018-12-08T18:19:21.712Z,320.77
2018-12-08T18:21:50.156Z,367.27
2018-12-08T18:24:18.968Z,329.97
2018-12-08T18:26:47.358Z,337.00
2018-12-08T18:29:15.745Z,332.77
2018-12-08T18:31:44.173Z,307.53
2018-12-08T18:34:25.982Z,272.87
2018-12-08T18:36:56.395Z,288.13
2018-12-08T18:39:24.972Z,263.27
2018-12-08T18:41:53.402Z,298.50
2018-12-08T18:44:22.304Z,327.70
2018-12-08T18:46:50.756Z,340.20
2018-12-08T18:49:19.157Z,376.80
2018-12-08T18:51:47.728Z,394.40
2018-12-08T18:54:16.145Z,412.17
2018-12-08T18:56:44.852Z,379.27
2018-12-08T18:59:13.470Z,342.60
2018-12-08T19:01:41.901Z,334.67
2018-12-08T19:04:10.286Z,322.70
2018-12-08T19:06:38.849Z,337.67
2018-12-08T19:09:07.709Z,449.90
2018-12-08T19:11:36.200Z,557.83
2018-12-08T19:14:04.885Z,583.73
2018-12-08T19:16:33.268Z,433.57
2018-12-08T19:19:01.741Z,418.23
2018-12-08T19:21:30.456Z,455.13
2018-12-08T19:23:59.114Z,462.33
2018-12-08T19:26:27.493Z,435.03
2018-12-08T19:28:56.049Z,459.00
2018-12-08T19:31:24.529Z,458.40
2018-12-08T19:33:53.004Z,394.93
2018-12-08T19:36:21.561Z,389.13
2018-12-08T19:38:50.050Z,301.50
2018-12-08T19:41:18.430Z,234.97
2018-12-08T19:43:46.948Z,277.60
2018-12-08T19:46:15.424Z,292.80
2018-12-08T19:48:43.859Z,286.63
2018-12-08T19:51:12.564Z,288.87
2018-12-08T19:53:41.021Z,257.40
2018-12-08T19:56:09.492Z,157.80
2018-12-08T19:58:38.186Z,169.70
2018-12-08T20:01:06.673Z,229.73
2018-12-08T20:03:35.049Z,197.63
2018-12-08T20:06:03.628Z,201.47
2018-12-08T20:08:32.012Z,166.90
2018-12-08T20:11:00.506Z,220.47
2018-12-08T20:13:29.017Z,229.97
2018-12-08T20:15:57.443Z,209.83
2018-12-08T20:18:25.932Z,200.93
2018-12-08T20:20:54.463Z,212.17
2018-12-08T20:23:22.824Z,156.90
2018-12-08T20:25:51.184Z,159.93
2018-12-08T20:28:19.848Z,181.07
2018-12-08T20:30:48.223Z,178.53
2018-12-08T20:33:16.704Z,202.33
2018-12-08T20:35:45.145Z,196.03
2018-12-08T20:38:13.518Z,211.67
2018-12-08T20:40:41.947Z,227.27
2018-12-08T20:43:10.528Z,224.30
2018-12-08T20:45:39.021Z,220.50
2018-12-08T20:48:07.492Z,224.50
2018-12-08T20:50:36.277Z,211.53
2018-12-08T20:53:04.764Z,207.37
2018-12-08T20:55:33.256Z,152.00
2018-12-08T20:58:01.834Z,167.17
2018-12-08T21:00:30.207Z,157.23
2018-12-08T21:02:58.896Z,143.33
2018-12-08T21:05:27.373Z,139.33
2018-12-08T21:07:55.848Z,162.87
2018-12-08T21:10:24.216Z,150.80
2018-12-08T21:12:53.329Z,166.47
2018-12-08T21:15:21.804Z,189.43
2018-12-08T21:17:50.284Z,182.53
2018-12-08T21:20:19.872Z,161.20
2018-12-08T21:22:48.296Z,121.70
2018-12-08T21:25:16.703Z,110.43
2018-12-08T21:27:45.279Z,168.43
2018-12-08T21:30:13.710Z,171.40
2018-12-08T21:32:42.079Z,184.13
2018-12-08T21:35:10.812Z,215.20
2018-12-08T21:37:39.250Z,255.67
2018-12-08T21:40:11.772Z,182.33
2018-12-08T21:42:40.260Z,162.30
2018-12-08T21:45:08.746Z,178.53
2018-12-08T21:47:37.526Z,115.57
2018-12-08T21:50:06.525Z,122.10
2018-12-08T21:52:35.009Z,103.40
2018-12-08T21:55:03.424Z,69.47
2018-12-08T21:57:31.805Z,82.23
2018-12-08T22:00:00.426Z,84.57
2018-12-08T22:02:28.961Z,102.60
2018-12-08T22:04:57.350Z,119.17
2018-12-08T22:07:25.728Z,117.83
2018-12-08T22:09:54.471Z,132.67
2018-12-08T22:12:22.961Z,134.87
2018-12-08T22:14:56.973Z,121.87
2018-12-08T22:17:25.556Z,116.20
2018-12-08T22:19:54.085Z,118.60
2018-12-08T22:22:22.520Z,122.67
2018-12-08T22:24:50.897Z,126.03
2018-12-08T22:27:19.377Z,117.40
2018-12-08T22:29:48.061Z,128.53
2018-12-08T22:32:16.535Z,127.27
2018-12-08T22:34:45.021Z,114.13
2018-12-08T22:37:13.596Z,104.13
2018-12-08T22:39:42.028Z,115.60
2018-12-08T22:42:10.460Z,106.57
2018-12-08T22:44:39.144Z,88.07
2018-12-08T22:47:08.442Z,71.97
2018-12-08T22:49:36.823Z,66.33
2018-12-08T22:52:05.317Z,69.87
2018-12-08T22:54:33.784Z,65.53
2018-12-08T22:57:02.208Z,69.83
2018-12-08T22:59:30.945Z,67.13
2018-12-08T23:01:59.472Z,73.90
2018-12-08T23:04:27.850Z,68.50
2018-12-08T23:07:03.357Z,90.87
2018-12-08T23:09:32.148Z,77.67
2018-12-08T23:12:00.519Z,78.00
2018-12-08T23:14:29.104Z,75.70
2018-12-08T23:16:57.480Z,82.40
2018-12-08T23:19:25.960Z,92.70
2018-12-08T23:21:54.648Z,85.93
2018-12-08T23:24:23.136Z,81.43
2018-12-08T23:26:51.556Z,74.73
2018-12-08T23:29:20.299Z,74.57
2018-12-08T23:31:48.775Z,102.00
2018-12-08T23:34:17.128Z,83.37
2018-12-08T23:36:45.841Z,80.13
2018-12-08T23:39:14.200Z,68.27
2018-12-08T23:41:42.582Z,82.90
2018-12-08T23:44:11.088Z,75.60
2018-12-08T23:46:39.472Z,74.10
2018-12-08T23:49:11.372Z,72.47
2018-12-08T23:51:39.593Z,72.53
2018-12-08T23:54:07.971Z,60.93
2018-12-08T23:56:36.356Z,67.30
2018-12-08T23:59:05.049Z,71.47
